sensor_id;sensor_type;location;lat;lon;timestamp;pressure;altitude;pressure_sealevel;temperature;humidity
22775;BME280;11554;51.106;3.684;2023-08-20T00:00:00;102051.36;;;17.58;100.0
22775;BME280;11554;51.106;3.684;2023-08-20T00:05:00;102054.14;;;17.64;100.0
22775;BME280;11554;51.106;3.684;2023-08-20T00:10:00;102054.78;;;17.71;100.0
22775;BME280;11554;51.106;3.684;2023-08-20T00:15:01;102059.01;;;17.75;100.0
22775;BME280;11554;51.106;3.684;2023-08-20T00:20:00;102060.17;;;17.78;100.0
22775;BME280;11554;51.106;3.684;2023-08-20T00:25:00;102066.41;;;17.83;100.0
22775;BME280;11554;51.106;3.684;2023-08-20T00:30:00;102065.72;;;17.89;100.0
22775;BME280;11554;51.106;3.684;2023-08-20T00:35:00;102067.81;;;17.88;100.0
22775;BME280;11554;51.106;3.684;2023-08-20T00:40:00;102076.29;;;17.78;100.0
22775;BME280;11554;51.106;3.684;2023-08-20T00:45:00;102079.69;;;17.78;100.0
22775;BME280;11554;51.106;3.684;2023-08-20T00:50:00;102086.35;;;17.77;100.0
22775;BME280;11554;51.106;3.684;2023-08-20T00:55:00;102089.73;;;17.76;100.0
22775;BME280;11554;51.106;3.684;2023-08-20T01:00:00;102091.5;;;17.80;100.0
22775;BME280;11554;51.106;3.684;2023-08-20T01:05:00;102089.94;;;17.81;100.0
22775;BME280;11554;51.106;3.684;2023-08-20T01:10:03;102088.01;;;17.83;100.0
22775;BME280;11554;51.106;3.684;2023-08-20T01:15:00;102092.22;;;17.86;100.0
22775;BME280;11554;51.106;3.684;2023-08-20T01:20:00;102093.40999999999;;;17.81;100.0
22775;BME280;11554;51.106;3.684;2023-08-20T01:25:04;102091.07;;;17.78;100.0
22775;BME280;11554;51.106;3.684;2023-08-20T01:30:00;102089.31;;;17.66;100.0
22775;BME280;11554;51.106;3.684;2023-08-20T01:35:00;102080.22;;;17.57;100.0
22775;BME280;11554;51.106;3.684;2023-08-20T01:40:00;102093.56;;;17.31;100.0
22775;BME280;11554;51.106;3.684;2023-08-20T01:45:00;102093.16;;;17.17;100.0
22775;BME280;11554;51.106;3.684;2023-08-20T01:50:00;102092.31;;;17.06;100.0
22775;BME280;11554;51.106;3.684;2023-08-20T01:55:00;102100.48000000001;;;16.93;100.0
22775;BME280;11554;51.106;3.684;2023-08-20T02:00:00;102108.04000000001;;;16.84;100.0
22775;BME280;11554;51.106;3.684;2023-08-20T02:05:00;102109.83;;;16.82;100.0
22775;BME280;11554;51.106;3.684;2023-08-20T02:10:00;102109.66;;;16.98;100.0
22775;BME280;11554;51.106;3.684;2023-08-20T02:15:00;102109.12;;;16.90;100.0
22775;BME280;11554;51.106;3.684;2023-08-20T02:20:00;102106.62;;;16.81;100.0
22775;BME280;11554;51.106;3.684;2023-08-20T02:25:00;102109.36;;;16.65;100.0
22775;BME280;11554;51.106;3.684;2023-08-20T02:30:00;102110.0;;;16.54;100.0
22775;BME280;11554;51.106;3.684;2023-08-20T02:35:00;102118.82;;;16.43;100.0
22775;BME280;11554;51.106;3.684;2023-08-20T02:40:00;102125.61;;;16.43;100.0
22775;BME280;11554;51.106;3.684;2023-08-20T02:45:00;102124.14;;;16.46;100.0
22775;BME280;11554;51.106;3.684;2023-08-20T02:50:00;102126.56;;;16.44;100.0
22775;BME280;11554;51.106;3.684;2023-08-20T02:55:00;102118.75;;;16.52;100.0
22775;BME280;11554;51.106;3.684;2023-08-20T03:00:00;102122.47;;;16.50;100.0
22775;BME280;11554;51.106;3.684;2023-08-20T03:05:00;102126.39;;;16.54;100.0
22775;BME280;11554;51.106;3.684;2023-08-20T03:10:00;102121.88;;;16.58;100.0
22775;BME280;11554;51.106;3.684;2023-08-20T03:15:00;102118.19;;;16.49;100.0
22775;BME280;11554;51.106;3.684;2023-08-20T03:20:00;102116.86;;;16.44;100.0
22775;BME280;11554;51.106;3.684;2023-08-20T03:25:00;102115.22;;;16.41;100.0
22775;BME280;11554;51.106;3.684;2023-08-20T03:30:00;102107.29;;;16.33;100.0
22775;BME280;11554;51.106;3.684;2023-08-20T03:35:00;102112.93;;;16.13;100.0
22775;BME280;11554;51.106;3.684;2023-08-20T03:40:00;102117.56;;;16.02;100.0
22775;BME280;11554;51.106;3.684;2023-08-20T03:45:00;102121.61;;;15.91;100.0
22775;BME280;11554;51.106;3.684;2023-08-20T03:50:00;102120.11;;;15.81;100.0
22775;BME280;11554;51.106;3.684;2023-08-20T03:55:00;102123.36;;;15.64;100.0
22775;BME280;11554;51.106;3.684;2023-08-20T04:00:00;102134.12;;;15.50;100.0
22775;BME280;11554;51.106;3.684;2023-08-20T04:05:00;102138.15;;;15.38;100.0
22775;BME280;11554;51.106;3.684;2023-08-20T04:10:00;102141.17;;;15.25;100.0
22775;BME280;11554;51.106;3.684;2023-08-20T04:15:00;102145.47;;;15.20;100.0
22775;BME280;11554;51.106;3.684;2023-08-20T04:20:00;102145.74;;;15.35;100.0
22775;BME280;11554;51.106;3.684;2023-08-20T04:25:00;102159.27;;;15.06;100.0
22775;BME280;11554;51.106;3.684;2023-08-20T04:30:00;102164.59;;;14.99;100.0
22775;BME280;11554;51.106;3.684;2023-08-20T04:35:00;102169.42;;;14.99;100.0
22775;BME280;11554;51.106;3.684;2023-08-20T04:40:00;102167.88;;;14.94;100.0
22775;BME280;11554;51.106;3.684;2023-08-20T04:45:00;102169.22;;;14.91;100.0
22775;BME280;11554;51.106;3.684;2023-08-20T04:50:00;102178.94;;;14.82;100.0
22775;BME280;11554;51.106;3.684;2023-08-20T04:55:00;102176.73;;;14.78;100.0
22775;BME280;11554;51.106;3.684;2023-08-20T05:00:00;102182.03;;;14.74;100.0
22775;BME280;11554;51.106;3.684;2023-08-20T05:05:00;102187.05;;;14.83;100.0
22775;BME280;11554;51.106;3.684;2023-08-20T05:10:00;102179.86;;;15.01;100.0
22775;BME280;11554;51.106;3.684;2023-08-20T05:15:00;102180.69;;;15.20;100.0
22775;BME280;11554;51.106;3.684;2023-08-20T05:20:00;102182.72;;;15.89;100.0
22775;BME280;11554;51.106;3.684;2023-08-20T05:25:00;102178.03;;;16.12;100.0
22775;BME280;11554;51.106;3.684;2023-08-20T05:30:00;102189.18;;;16.09;100.0
22775;BME280;11554;51.106;3.684;2023-08-20T05:35:00;102184.16;;;16.42;100.0
22775;BME280;11554;51.106;3.684;2023-08-20T05:40:00;102194.65;;;17.26;100.0
22775;BME280;11554;51.106;3.684;2023-08-20T05:45:00;102191.89;;;18.18;100.0
22775;BME280;11554;51.106;3.684;2023-08-20T05:50:00;102189.58;;;18.99;100.0
22775;BME280;11554;51.106;3.684;2023-08-20T05:55:00;102185.19;;;19.88;100.0
22775;BME280;11554;51.106;3.684;2023-08-20T06:00:00;102183.12;;;20.85;100.0
22775;BME280;11554;51.106;3.684;2023-08-20T06:05:00;102194.11;;;21.71;100.0
22775;BME280;11554;51.106;3.684;2023-08-20T06:10:00;102194.31;;;22.60;100.0
22775;BME280;11554;51.106;3.684;2023-08-20T06:15:00;102189.65;;;23.44;100.0
22775;BME280;11554;51.106;3.684;2023-08-20T06:20:00;102185.13;;;24.15;100.0
22775;BME280;11554;51.106;3.684;2023-08-20T06:25:00;102187.61;;;24.84;96.29
22775;BME280;11554;51.106;3.684;2023-08-20T06:30:00;102193.48;;;25.49;94.3
22775;BME280;11554;51.106;3.684;2023-08-20T06:35:00;102195.76;;;25.91;89.59
22775;BME280;11554;51.106;3.684;2023-08-20T06:40:00;102199.89;;;26.20;87.12
22775;BME280;11554;51.106;3.684;2023-08-20T06:45:00;102208.25;;;26.64;85.68
22775;BME280;11554;51.106;3.684;2023-08-20T06:50:00;102216.31;;;27.00;83.57
22775;BME280;11554;51.106;3.684;2023-08-20T06:55:00;102208.59;;;27.34;80.41
22775;BME280;11554;51.106;3.684;2023-08-20T07:00:00;102215.57;;;27.67;79.55
22775;BME280;11554;51.106;3.684;2023-08-20T07:05:00;102217.64;;;27.97;76.39
22775;BME280;11554;51.106;3.684;2023-08-20T07:10:00;102218.57;;;28.16;74.63
22775;BME280;11554;51.106;3.684;2023-08-20T07:15:00;102231.19;;;27.10;74.91
22775;BME280;11554;51.106;3.684;2023-08-20T07:20:00;102219.76;;;27.37;76.84
22775;BME280;11554;51.106;3.684;2023-08-20T07:25:00;102215.4;;;27.58;75.1
22775;BME280;11554;51.106;3.684;2023-08-20T07:30:00;102216.8;;;28.11;74.45
22775;BME280;11554;51.106;3.684;2023-08-20T07:35:00;102224.08;;;28.59;73.77
22775;BME280;11554;51.106;3.684;2023-08-20T07:40:00;102221.06999999999;;;28.62;73.16
22775;BME280;11554;51.106;3.684;2023-08-20T07:45:00;102222.58;;;28.62;72.06
22775;BME280;11554;51.106;3.684;2023-08-20T07:50:00;102223.82;;;28.74;72.51
22775;BME280;11554;51.106;3.684;2023-08-20T07:55:00;102231.18;;;28.56;70.33
22775;BME280;11554;51.106;3.684;2023-08-20T08:00:00;102236.15999999999;;;28.03;70.67
22775;BME280;11554;51.106;3.684;2023-08-20T08:05:00;102236.01;;;28.27;70.11
22775;BME280;11554;51.106;3.684;2023-08-20T08:10:00;102242.14;;;28.48;70.77
22775;BME280;11554;51.106;3.684;2023-08-20T08:15:00;102239.81;;;28.62;71.19
22775;BME280;11554;51.106;3.684;2023-08-20T08:20:00;102241.06;;;28.77;72.57
22775;BME280;11554;51.106;3.684;2023-08-20T08:25:00;102246.29;;;28.97;70.93
22775;BME280;11554;51.106;3.684;2023-08-20T08:30:00;102254.8;;;29.15;71.71
22775;BME280;11554;51.106;3.684;2023-08-20T08:35:00;102257.4;;;29.06;69.79
22775;BME280;11554;51.106;3.684;2023-08-20T08:40:00;102258.37;;;29.12;70.05
22775;BME280;11554;51.106;3.684;2023-08-20T08:45:00;102257.83;;;28.63;67.93
22775;BME280;11554;51.106;3.684;2023-08-20T08:50:00;102255.72;;;28.71;70.8
22775;BME280;11554;51.106;3.684;2023-08-20T08:55:00;102256.12;;;28.58;71.38
22775;BME280;11554;51.106;3.684;2023-08-20T09:00:00;102256.89;;;28.64;68.41
22775;BME280;11554;51.106;3.684;2023-08-20T09:05:00;102256.89;;;28.52;67.37
22775;BME280;11554;51.106;3.684;2023-08-20T09:10:00;102259.68000000001;;;28.73;70.37
22775;BME280;11554;51.106;3.684;2023-08-20T09:15:00;102261.81;;;29.19;71.93
22775;BME280;11554;51.106;3.684;2023-08-20T09:20:00;102265.91;;;29.27;68.91
22775;BME280;11554;51.106;3.684;2023-08-20T09:25:00;102270.74;;;29.22;66.03
22775;BME280;11554;51.106;3.684;2023-08-20T09:30:00;102268.17;;;28.33;68.91
22775;BME280;11554;51.106;3.684;2023-08-20T09:35:00;102267.83;;;28.67;68.47
22775;BME280;11554;51.106;3.684;2023-08-20T09:40:00;102267.96;;;29.05;69.22
22775;BME280;11554;51.106;3.684;2023-08-20T09:45:00;102268.66;;;29.17;68.02
22775;BME280;11554;51.106;3.684;2023-08-20T09:50:00;102264.5;;;28.79;69.75
22775;BME280;11554;51.106;3.684;2023-08-20T09:55:00;102263.47;;;29.34;67.18
22775;BME280;11554;51.106;3.684;2023-08-20T10:00:00;102260.28;;;29.67;67.28
22775;BME280;11554;51.106;3.684;2023-08-20T10:05:00;102256.31;;;29.82;66.56
22775;BME280;11554;51.106;3.684;2023-08-20T10:10:00;102255.24;;;29.67;63.57
22775;BME280;11554;51.106;3.684;2023-08-20T10:15:00;102258.61;;;29.16;62.64
22775;BME280;11554;51.106;3.684;2023-08-20T10:20:00;102256.04;;;29.50;64.42
22775;BME280;11554;51.106;3.684;2023-08-20T10:25:00;102252.56000000001;;;29.91;66.54
22775;BME280;11554;51.106;3.684;2023-08-20T10:30:00;102247.5;;;29.80;62.5
22775;BME280;11554;51.106;3.684;2023-08-20T10:35:00;102238.73;;;29.72;61.32
22775;BME280;11554;51.106;3.684;2023-08-20T10:40:00;102229.08;;;29.68;62.87
22775;BME280;11554;51.106;3.684;2023-08-20T10:45:00;102220.33;;;29.73;63.75
22775;BME280;11554;51.106;3.684;2023-08-20T10:50:00;102213.95;;;30.50;63.29
22775;BME280;11554;51.106;3.684;2023-08-20T10:55:00;102203.36;;;30.06;63.14
22775;BME280;11554;51.106;3.684;2023-08-20T11:00:01;102194.78;;;30.52;63.2
22775;BME280;11554;51.106;3.684;2023-08-20T11:05:00;102195.59000000001;;;30.78;61.45
22775;BME280;11554;51.106;3.684;2023-08-20T11:10:00;102203.02;;;30.68;62.35
22775;BME280;11554;51.106;3.684;2023-08-20T11:15:00;102202.73;;;30.67;61.97
22775;BME280;11554;51.106;3.684;2023-08-20T11:20:00;102201.5;;;30.87;60.89
22775;BME280;11554;51.106;3.684;2023-08-20T11:25:00;102198.67;;;31.25;61.98
22775;BME280;11554;51.106;3.684;2023-08-20T11:30:00;102200.34000000001;;;31.04;60.3
22775;BME280;11554;51.106;3.684;2023-08-20T11:35:00;102197.88;;;31.33;60.85
22775;BME280;11554;51.106;3.684;2023-08-20T11:40:00;102196.06;;;32.45;60.66
22775;BME280;11554;51.106;3.684;2023-08-20T11:45:00;102197.16;;;31.74;59.64
22775;BME280;11554;51.106;3.684;2023-08-20T11:50:01;102196.41;;;31.51;58.8
22775;BME280;11554;51.106;3.684;2023-08-20T11:55:00;102197.14;;;31.22;60.02
22775;BME280;11554;51.106;3.684;2023-08-20T12:00:00;102191.85;;;32.20;64.46
22775;BME280;11554;51.106;3.684;2023-08-20T12:05:00;102188.83;;;32.83;61.17
22775;BME280;11554;51.106;3.684;2023-08-20T12:10:06;102192.93000000001;;;33.42;60.25
22775;BME280;11554;51.106;3.684;2023-08-20T12:15:00;102193.8;;;33.44;59.44
22775;BME280;11554;51.106;3.684;2023-08-20T12:20:00;102188.05;;;33.78;58.47
22775;BME280;11554;51.106;3.684;2023-08-20T12:25:00;102184.22;;;33.57;58.81
22775;BME280;11554;51.106;3.684;2023-08-20T12:30:00;102181.59000000001;;;33.67;56.82
22775;BME280;11554;51.106;3.684;2023-08-20T12:35:00;102185.0;;;33.44;59.74
22775;BME280;11554;51.106;3.684;2023-08-20T12:40:00;102184.99;;;33.93;57.59
22775;BME280;11554;51.106;3.684;2023-08-20T12:45:00;102184.37;;;34.46;57.1
22775;BME280;11554;51.106;3.684;2023-08-20T12:50:00;102185.72;;;34.68;58.41
22775;BME280;11554;51.106;3.684;2023-08-20T12:55:00;102184.83;;;34.72;57.52
22775;BME280;11554;51.106;3.684;2023-08-20T13:00:00;102189.03;;;33.65;57.7
22775;BME280;11554;51.106;3.684;2023-08-20T13:05:00;102189.04;;;33.76;56.92
22775;BME280;11554;51.106;3.684;2023-08-20T13:10:00;102184.99;;;34.08;58.79
22775;BME280;11554;51.106;3.684;2023-08-20T13:15:00;102184.64;;;33.93;58.11
22775;BME280;11554;51.106;3.684;2023-08-20T13:20:00;102186.42;;;33.67;58.54
22775;BME280;11554;51.106;3.684;2023-08-20T13:25:00;102188.34000000001;;;32.97;59.75
22775;BME280;11554;51.106;3.684;2023-08-20T13:30:00;102188.16;;;32.46;58.64
22775;BME280;11554;51.106;3.684;2023-08-20T13:35:00;102192.03;;;31.85;60.98
22775;BME280;11554;51.106;3.684;2023-08-20T13:40:00;102191.65000000001;;;30.63;66.74
22775;BME280;11554;51.106;3.684;2023-08-20T13:45:00;102190.84;;;30.22;67.16
22775;BME280;11554;51.106;3.684;2023-08-20T13:50:00;102202.51;;;30.37;69.27
22775;BME280;11554;51.106;3.684;2023-08-20T13:55:00;102213.58;;;30.68;67.41
22775;BME280;11554;51.106;3.684;2023-08-20T14:00:00;102209.41;;;30.53;69.1
22775;BME280;11554;51.106;3.684;2023-08-20T14:05:00;102201.76;;;29.98;70.18
22775;BME280;11554;51.106;3.684;2023-08-20T14:10:00;102205.44;;;29.97;70.2
22775;BME280;11554;51.106;3.684;2023-08-20T14:15:00;102209.27;;;29.46;70.76
22775;BME280;11554;51.106;3.684;2023-08-20T14:20:00;102195.61;;;30.15;71.26
22775;BME280;11554;51.106;3.684;2023-08-20T14:25:00;102190.3;;;29.72;69.62
22775;BME280;11554;51.106;3.684;2023-08-20T14:30:00;102186.63;;;30.09;68.51
22775;BME280;11554;51.106;3.684;2023-08-20T14:35:00;102181.91;;;29.87;69.09
22775;BME280;11554;51.106;3.684;2023-08-20T14:40:00;102177.22;;;29.81;68.98
22775;BME280;11554;51.106;3.684;2023-08-20T14:45:00;102179.45999999999;;;29.92;68.29
22775;BME280;11554;51.106;3.684;2023-08-20T14:50:00;102176.14;;;29.70;68.0
22775;BME280;11554;51.106;3.684;2023-08-20T14:55:00;102188.5;;;29.96;68.73
22775;BME280;11554;51.106;3.684;2023-08-20T15:00:00;102183.82;;;30.06;69.27
22775;BME280;11554;51.106;3.684;2023-08-20T15:05:00;102182.47;;;29.06;70.1
22775;BME280;11554;51.106;3.684;2023-08-20T15:10:00;102171.83;;;29.12;68.73
22775;BME280;11554;51.106;3.684;2023-08-20T15:15:00;102167.76999999999;;;29.16;68.94
22775;BME280;11554;51.106;3.684;2023-08-20T15:20:00;102164.83;;;29.33;67.75
22775;BME280;11554;51.106;3.684;2023-08-20T15:25:00;102164.59;;;28.97;68.57
22775;BME280;11554;51.106;3.684;2023-08-20T15:30:00;102159.34;;;28.88;68.47
22775;BME280;11554;51.106;3.684;2023-08-20T15:35:00;102164.58;;;28.92;67.66
22775;BME280;11554;51.106;3.684;2023-08-20T15:40:00;102162.85;;;28.60;66.91
22775;BME280;11554;51.106;3.684;2023-08-20T15:45:00;102163.2;;;28.69;66.77
22775;BME280;11554;51.106;3.684;2023-08-20T15:50:00;102161.53;;;28.26;67.17
22775;BME280;11554;51.106;3.684;2023-08-20T15:55:00;102163.97;;;29.06;67.43
22775;BME280;11554;51.106;3.684;2023-08-20T16:00:00;102160.94;;;28.25;66.85
22775;BME280;11554;51.106;3.684;2023-08-20T16:05:00;102160.16;;;28.08;68.12
22775;BME280;11554;51.106;3.684;2023-08-20T16:10:00;102157.67;;;28.22;65.91
22775;BME280;11554;51.106;3.684;2023-08-20T16:15:00;102152.53;;;28.52;67.35
22775;BME280;11554;51.106;3.684;2023-08-20T16:20:00;102152.29000000001;;;28.01;66.28
22775;BME280;11554;51.106;3.684;2023-08-20T16:25:00;102144.28;;;28.13;67.08
22775;BME280;11554;51.106;3.684;2023-08-20T16:30:00;102143.76999999999;;;28.02;67.47
22775;BME280;11554;51.106;3.684;2023-08-20T16:35:00;102142.21;;;27.94;67.88
22775;BME280;11554;51.106;3.684;2023-08-20T16:40:00;102145.95000000001;;;27.44;67.86
22775;BME280;11554;51.106;3.684;2023-08-20T16:45:00;102149.93;;;27.20;68.06
22775;BME280;11554;51.106;3.684;2023-08-20T16:50:00;102149.97;;;27.34;67.17
22775;BME280;11554;51.106;3.684;2023-08-20T16:55:00;102144.47;;;27.28;69.59
22775;BME280;11554;51.106;3.684;2023-08-20T17:00:00;102147.81;;;27.23;68.09
22775;BME280;11554;51.106;3.684;2023-08-20T17:05:00;102154.14;;;27.03;68.19
22775;BME280;11554;51.106;3.684;2023-08-20T17:10:00;102160.37;;;26.74;67.58
22775;BME280;11554;51.106;3.684;2023-08-20T17:15:00;102154.71;;;26.65;68.34
22775;BME280;11554;51.106;3.684;2023-08-20T17:20:00;102154.72;;;26.35;68.0
22775;BME280;11554;51.106;3.684;2023-08-20T17:25:00;102154.47;;;26.14;68.59
22775;BME280;11554;51.106;3.684;2023-08-20T17:30:00;102150.23;;;25.97;70.05
22775;BME280;11554;51.106;3.684;2023-08-20T17:35:00;102149.54000000001;;;25.76;70.39
22775;BME280;11554;51.106;3.684;2023-08-20T17:40:00;102151.0;;;25.73;71.7
22775;BME280;11554;51.106;3.684;2023-08-20T17:45:00;102148.91;;;25.49;71.72
22775;BME280;11554;51.106;3.684;2023-08-20T17:50:00;102157.83;;;25.09;72.76
22775;BME280;11554;51.106;3.684;2023-08-20T17:55:00;102171.20999999999;;;24.89;74.17
22775;BME280;11554;51.106;3.684;2023-08-20T18:00:00;102167.19;;;24.75;75.01
22775;BME280;11554;51.106;3.684;2023-08-20T18:05:00;102168.61;;;24.42;76.01
22775;BME280;11554;51.106;3.684;2023-08-20T18:10:01;102166.63;;;24.13;77.19
22775;BME280;11554;51.106;3.684;2023-08-20T18:15:00;102175.48000000001;;;23.96;77.78
22775;BME280;11554;51.106;3.684;2023-08-20T18:20:00;102176.29;;;23.74;78.99
22775;BME280;11554;51.106;3.684;2023-08-20T18:25:00;102177.61;;;23.45;80.18
22775;BME280;11554;51.106;3.684;2023-08-20T18:30:00;102175.16;;;23.21;80.92
22775;BME280;11554;51.106;3.684;2023-08-20T18:35:00;102176.26000000001;;;23.00;81.72
22775;BME280;11554;51.106;3.684;2023-08-20T18:40:00;102179.17;;;22.80;82.43
22775;BME280;11554;51.106;3.684;2023-08-20T18:45:00;102189.01;;;22.59;82.99
22775;BME280;11554;51.106;3.684;2023-08-20T18:50:00;102190.92000000001;;;22.32;83.45
22775;BME280;11554;51.106;3.684;2023-08-20T18:55:00;102197.2;;;22.10;84.25
22775;BME280;11554;51.106;3.684;2023-08-20T19:00:00;102200.17;;;21.91;84.82
22775;BME280;11554;51.106;3.684;2023-08-20T19:05:00;102206.58;;;21.71;84.94
22775;BME280;11554;51.106;3.684;2023-08-20T19:10:00;102214.87;;;21.55;85.11
22775;BME280;11554;51.106;3.684;2023-08-20T19:15:00;102223.39;;;21.37;87.34
22775;BME280;11554;51.106;3.684;2023-08-20T19:20:00;102229.53;;;21.18;86.53
22775;BME280;11554;51.106;3.684;2023-08-20T19:25:00;102233.5;;;21.03;88.32
22775;BME280;11554;51.106;3.684;2023-08-20T19:30:00;102235.36;;;20.85;88.24
22775;BME280;11554;51.106;3.684;2023-08-20T19:35:00;102234.63;;;20.69;88.87
22775;BME280;11554;51.106;3.684;2023-08-20T19:40:00;102233.01;;;20.52;90.15
22775;BME280;11554;51.106;3.684;2023-08-20T19:45:00;102244.42;;;20.46;91.82
22775;BME280;11554;51.106;3.684;2023-08-20T19:50:00;102252.35;;;20.27;90.74
22775;BME280;11554;51.106;3.684;2023-08-20T19:55:00;102254.1;;;20.14;90.19
22775;BME280;11554;51.106;3.684;2023-08-20T20:00:00;102251.37;;;20.07;90.92
22775;BME280;11554;51.106;3.684;2023-08-20T20:05:00;102252.97;;;19.93;91.24
22775;BME280;11554;51.106;3.684;2023-08-20T20:10:00;102252.47;;;19.83;92.41
22775;BME280;11554;51.106;3.684;2023-08-20T20:15:00;102262.92;;;19.75;93.65
22775;BME280;11554;51.106;3.684;2023-08-20T20:20:00;102266.69;;;19.66;92.83
22775;BME280;11554;51.106;3.684;2023-08-20T20:25:00;102270.76;;;19.60;93.29
22775;BME280;11554;51.106;3.684;2023-08-20T20:30:01;102278.22;;;19.44;92.89
22775;BME280;11554;51.106;3.684;2023-08-20T20:35:00;102286.69;;;19.39;93.09
22775;BME280;11554;51.106;3.684;2023-08-20T20:40:00;102284.09;;;19.32;93.39
22775;BME280;11554;51.106;3.684;2023-08-20T20:45:00;102289.95;;;19.24;94.9
22775;BME280;11554;51.106;3.684;2023-08-20T20:50:00;102293.38;;;19.15;94.67
22775;BME280;11554;51.106;3.684;2023-08-20T20:55:00;102297.37;;;19.13;95.45
22775;BME280;11554;51.106;3.684;2023-08-20T21:00:00;102303.59999999999;;;19.12;95.56
22775;BME280;11554;51.106;3.684;2023-08-20T21:05:00;102306.16;;;19.08;94.8
22775;BME280;11554;51.106;3.684;2023-08-20T21:10:00;102306.0;;;19.13;96.63
22775;BME280;11554;51.106;3.684;2023-08-20T21:15:00;102301.62;;;19.13;96.92
22775;BME280;11554;51.106;3.684;2023-08-20T21:20:00;102299.2;;;18.99;96.03
22775;BME280;11554;51.106;3.684;2023-08-20T21:25:00;102298.94;;;18.90;94.81
22775;BME280;11554;51.106;3.684;2023-08-20T21:30:00;102305.35;;;18.79;95.19
22775;BME280;11554;51.106;3.684;2023-08-20T21:35:00;102306.69;;;18.68;95.1
22775;BME280;11554;51.106;3.684;2023-08-20T21:40:00;102303.33;;;18.61;95.46
22775;BME280;11554;51.106;3.684;2023-08-20T21:45:00;102305.89;;;18.56;96.05
22775;BME280;11554;51.106;3.684;2023-08-20T21:50:00;102311.32;;;18.46;96.58
22775;BME280;11554;51.106;3.684;2023-08-20T21:55:00;102307.03;;;18.52;98.98
22775;BME280;11554;51.106;3.684;2023-08-20T22:00:00;102310.35;;;18.34;96.89
22775;BME280;11554;51.106;3.684;2023-08-20T22:10:00;102314.26;;;18.22;97.69
22775;BME280;11554;51.106;3.684;2023-08-20T22:15:00;102312.05;;;18.20;100.0
22775;BME280;11554;51.106;3.684;2023-08-20T22:20:00;102310.08;;;18.13;98.01
22775;BME280;11554;51.106;3.684;2023-08-20T22:30:00;102306.64;;;18.18;99.14
22775;BME280;11554;51.106;3.684;2023-08-20T22:35:00;102299.41;;;18.19;99.52
22775;BME280;11554;51.106;3.684;2023-08-20T22:40:00;102305.5;;;18.17;98.82
22775;BME280;11554;51.106;3.684;2023-08-20T22:45:00;102308.09000000001;;;18.18;98.85
22775;BME280;11554;51.106;3.684;2023-08-20T22:50:00;102308.4;;;18.21;99.71
22775;BME280;11554;51.106;3.684;2023-08-20T22:55:00;102310.77;;;18.12;98.55
22775;BME280;11554;51.106;3.684;2023-08-20T23:00:00;102318.34;;;18.13;99.54
22775;BME280;11554;51.106;3.684;2023-08-20T23:05:00;102305.12999999999;;;18.22;100.0
22775;BME280;11554;51.106;3.684;2023-08-20T23:10:00;102304.35;;;18.22;100.0
22775;BME280;11554;51.106;3.684;2023-08-20T23:15:00;102301.36;;;18.16;100.0
22775;BME280;11554;51.106;3.684;2023-08-20T23:20:00;102311.64;;;18.09;100.0
22775;BME280;11554;51.106;3.684;2023-08-20T23:25:00;102319.98;;;18.07;100.0
22775;BME280;11554;51.106;3.684;2023-08-20T23:30:00;102324.65999999999;;;18.12;100.0
22775;BME280;11554;51.106;3.684;2023-08-20T23:35:00;102304.79000000001;;;18.14;100.0
22775;BME280;11554;51.106;3.684;2023-08-20T23:40:00;102312.84000000001;;;18.01;100.0
22775;BME280;11554;51.106;3.684;2023-08-20T23:45:00;102309.03;;;17.90;100.0
22775;BME280;11554;51.106;3.684;2023-08-20T23:50:00;102313.2;;;17.81;100.0
22775;BME280;11554;51.106;3.684;2023-08-20T23:55:00;102320.86;;;17.66;100.0
